sensor_id;sensor_type;location;lat;lon;timestamp;temperature;humidity
13898;DHT22;7019;50.766;4.474;2022-08-06T00:00:49;12.60;99.90
13898;DHT22;7019;50.766;4.474;2022-08-06T00:03:17;12.60;99.90
13898;DHT22;7019;50.766;4.474;2022-08-06T00:05:45;12.60;99.90
13898;DHT22;7019;50.766;4.474;2022-08-06T00:08:13;12.60;99.90
13898;DHT22;7019;50.766;4.474;2022-08-06T00:10:40;12.60;99.90
13898;DHT22;7019;50.766;4.474;2022-08-06T00:13:07;12.60;99.90
13898;DHT22;7019;50.766;4.474;2022-08-06T00:15:34;12.50;99.90
13898;DHT22;7019;50.766;4.474;2022-08-06T00:18:01;12.50;99.90
13898;DHT22;7019;50.766;4.474;2022-08-06T00:20:29;12.50;99.90
13898;DHT22;7019;50.766;4.474;2022-08-06T00:22:57;12.50;99.90
13898;DHT22;7019;50.766;4.474;2022-08-06T00:25:25;12.50;99.90
13898;DHT22;7019;50.766;4.474;2022-08-06T00:27:52;12.50;99.90
13898;DHT22;7019;50.766;4.474;2022-08-06T00:30:19;12.50;99.90
13898;DHT22;7019;50.766;4.474;2022-08-06T00:32:46;12.50;99.90
13898;DHT22;7019;50.766;4.474;2022-08-06T00:35:13;12.50;99.90
13898;DHT22;7019;50.766;4.474;2022-08-06T00:37:40;12.40;99.90
13898;DHT22;7019;50.766;4.474;2022-08-06T00:40:10;12.40;99.90
13898;DHT22;7019;50.766;4.474;2022-08-06T00:42:37;12.30;99.90
13898;DHT22;7019;50.766;4.474;2022-08-06T00:45:05;12.30;99.90
13898;DHT22;7019;50.766;4.474;2022-08-06T00:47:33;12.30;99.90
13898;DHT22;7019;50.766;4.474;2022-08-06T00:50:01;12.20;99.90
13898;DHT22;7019;50.766;4.474;2022-08-06T00:52:28;12.20;99.90
13898;DHT22;7019;50.766;4.474;2022-08-06T00:54:55;12.20;99.90
13898;DHT22;7019;50.766;4.474;2022-08-06T00:57:25;12.20;99.90
13898;DHT22;7019;50.766;4.474;2022-08-06T00:59:52;12.20;99.90
13898;DHT22;7019;50.766;4.474;2022-08-06T01:02:19;12.20;99.90
13898;DHT22;7019;50.766;4.474;2022-08-06T01:04:46;12.10;99.90
13898;DHT22;7019;50.766;4.474;2022-08-06T01:07:13;12.10;99.90
13898;DHT22;7019;50.766;4.474;2022-08-06T01:09:40;12.10;99.90
13898;DHT22;7019;50.766;4.474;2022-08-06T01:12:07;12.10;99.90
13898;DHT22;7019;50.766;4.474;2022-08-06T01:14:36;12.10;99.90
13898;DHT22;7019;50.766;4.474;2022-08-06T01:17:07;12.00;99.90
13898;DHT22;7019;50.766;4.474;2022-08-06T01:19:46;12.00;99.90
13898;DHT22;7019;50.766;4.474;2022-08-06T01:22:32;12.00;99.90
13898;DHT22;7019;50.766;4.474;2022-08-06T01:25:52;12.00;99.90
13898;DHT22;7019;50.766;4.474;2022-08-06T01:28:30;11.90;99.90
13898;DHT22;7019;50.766;4.474;2022-08-06T01:31:03;12.00;99.90
13898;DHT22;7019;50.766;4.474;2022-08-06T01:33:35;12.00;99.90
13898;DHT22;7019;50.766;4.474;2022-08-06T01:36:07;12.00;99.90
13898;DHT22;7019;50.766;4.474;2022-08-06T01:38:37;11.90;99.90
13898;DHT22;7019;50.766;4.474;2022-08-06T01:41:08;11.90;99.90
13898;DHT22;7019;50.766;4.474;2022-08-06T01:43:39;11.80;99.90
13898;DHT22;7019;50.766;4.474;2022-08-06T01:46:08;11.80;99.90
13898;DHT22;7019;50.766;4.474;2022-08-06T01:48:38;11.80;99.90
13898;DHT22;7019;50.766;4.474;2022-08-06T01:51:06;11.80;99.90
13898;DHT22;7019;50.766;4.474;2022-08-06T01:53:36;11.80;99.90
13898;DHT22;7019;50.766;4.474;2022-08-06T01:56:05;11.80;99.90
13898;DHT22;7019;50.766;4.474;2022-08-06T01:58:37;11.70;99.90
13898;DHT22;7019;50.766;4.474;2022-08-06T02:01:08;11.70;99.90
13898;DHT22;7019;50.766;4.474;2022-08-06T02:03:42;11.70;99.90
13898;DHT22;7019;50.766;4.474;2022-08-06T02:06:13;11.70;99.90
13898;DHT22;7019;50.766;4.474;2022-08-06T02:08:42;11.70;99.90
13898;DHT22;7019;50.766;4.474;2022-08-06T02:11:11;11.80;99.90
13898;DHT22;7019;50.766;4.474;2022-08-06T02:13:40;11.80;99.90
13898;DHT22;7019;50.766;4.474;2022-08-06T02:16:11;11.80;99.90
13898;DHT22;7019;50.766;4.474;2022-08-06T02:18:41;11.80;99.90
13898;DHT22;7019;50.766;4.474;2022-08-06T02:21:13;11.70;99.90
13898;DHT22;7019;50.766;4.474;2022-08-06T02:23:42;11.70;99.90
13898;DHT22;7019;50.766;4.474;2022-08-06T02:26:10;11.60;99.90
13898;DHT22;7019;50.766;4.474;2022-08-06T02:28:39;11.70;99.90
13898;DHT22;7019;50.766;4.474;2022-08-06T02:31:10;11.60;99.90
13898;DHT22;7019;50.766;4.474;2022-08-06T02:33:37;11.60;99.90
13898;DHT22;7019;50.766;4.474;2022-08-06T02:36:09;11.60;99.90
13898;DHT22;7019;50.766;4.474;2022-08-06T02:38:44;11.60;99.90
13898;DHT22;7019;50.766;4.474;2022-08-06T02:41:17;11.50;99.90
13898;DHT22;7019;50.766;4.474;2022-08-06T02:43:50;11.30;99.90
13898;DHT22;7019;50.766;4.474;2022-08-06T02:46:25;11.20;99.90
13898;DHT22;7019;50.766;4.474;2022-08-06T02:48:58;11.00;99.90
13898;DHT22;7019;50.766;4.474;2022-08-06T02:51:30;11.10;99.90
13898;DHT22;7019;50.766;4.474;2022-08-06T02:54:03;11.20;99.90
13898;DHT22;7019;50.766;4.474;2022-08-06T02:56:33;11.10;99.90
13898;DHT22;7019;50.766;4.474;2022-08-06T02:59:01;11.00;99.90
13898;DHT22;7019;50.766;4.474;2022-08-06T03:01:32;10.80;99.90
13898;DHT22;7019;50.766;4.474;2022-08-06T03:04:01;10.80;99.90
13898;DHT22;7019;50.766;4.474;2022-08-06T03:06:32;10.90;99.90
13898;DHT22;7019;50.766;4.474;2022-08-06T03:09:03;11.00;99.90
13898;DHT22;7019;50.766;4.474;2022-08-06T03:11:34;11.10;99.90
13898;DHT22;7019;50.766;4.474;2022-08-06T03:14:02;11.10;99.90
13898;DHT22;7019;50.766;4.474;2022-08-06T03:16:35;11.10;99.90
13898;DHT22;7019;50.766;4.474;2022-08-06T03:19:03;11.10;99.90
13898;DHT22;7019;50.766;4.474;2022-08-06T03:21:30;11.20;99.90
13898;DHT22;7019;50.766;4.474;2022-08-06T03:24:00;11.30;99.90
13898;DHT22;7019;50.766;4.474;2022-08-06T03:26:28;11.20;99.90
13898;DHT22;7019;50.766;4.474;2022-08-06T03:28:58;11.20;99.90
13898;DHT22;7019;50.766;4.474;2022-08-06T03:31:27;11.30;99.90
13898;DHT22;7019;50.766;4.474;2022-08-06T03:33:57;11.30;99.90
13898;DHT22;7019;50.766;4.474;2022-08-06T03:36:25;11.30;99.90
13898;DHT22;7019;50.766;4.474;2022-08-06T03:38:57;11.30;99.90
13898;DHT22;7019;50.766;4.474;2022-08-06T03:41:25;11.30;99.90
13898;DHT22;7019;50.766;4.474;2022-08-06T03:43:53;11.20;99.90
13898;DHT22;7019;50.766;4.474;2022-08-06T03:46:26;11.20;99.90
13898;DHT22;7019;50.766;4.474;2022-08-06T03:48:57;11.20;99.90
13898;DHT22;7019;50.766;4.474;2022-08-06T03:51:27;11.30;99.90
13898;DHT22;7019;50.766;4.474;2022-08-06T03:53:56;11.20;99.90
13898;DHT22;7019;50.766;4.474;2022-08-06T03:56:27;11.20;99.90
13898;DHT22;7019;50.766;4.474;2022-08-06T03:58:58;11.20;99.90
13898;DHT22;7019;50.766;4.474;2022-08-06T04:01:28;11.20;99.90
13898;DHT22;7019;50.766;4.474;2022-08-06T04:03:58;11.20;99.90
13898;DHT22;7019;50.766;4.474;2022-08-06T04:06:26;11.10;99.90
13898;DHT22;7019;50.766;4.474;2022-08-06T04:08:54;11.10;99.90
13898;DHT22;7019;50.766;4.474;2022-08-06T04:11:22;11.10;99.90
13898;DHT22;7019;50.766;4.474;2022-08-06T04:13:50;11.00;99.90
13898;DHT22;7019;50.766;4.474;2022-08-06T04:16:17;11.10;99.90
13898;DHT22;7019;50.766;4.474;2022-08-06T04:18:45;11.10;99.90
13898;DHT22;7019;50.766;4.474;2022-08-06T04:21:16;11.10;99.90
13898;DHT22;7019;50.766;4.474;2022-08-06T04:23:45;11.10;99.90
13898;DHT22;7019;50.766;4.474;2022-08-06T04:26:14;11.10;99.90
13898;DHT22;7019;50.766;4.474;2022-08-06T04:28:44;11.10;99.90
13898;DHT22;7019;50.766;4.474;2022-08-06T04:31:13;11.10;99.90
13898;DHT22;7019;50.766;4.474;2022-08-06T04:33:41;11.10;99.90
13898;DHT22;7019;50.766;4.474;2022-08-06T04:36:09;11.10;99.90
13898;DHT22;7019;50.766;4.474;2022-08-06T04:38:38;11.10;99.90
13898;DHT22;7019;50.766;4.474;2022-08-06T04:41:06;11.10;99.90
13898;DHT22;7019;50.766;4.474;2022-08-06T04:43:34;11.10;99.90
13898;DHT22;7019;50.766;4.474;2022-08-06T04:46:02;11.10;99.90
13898;DHT22;7019;50.766;4.474;2022-08-06T04:48:29;11.20;99.90
13898;DHT22;7019;50.766;4.474;2022-08-06T04:50:57;11.20;99.90
13898;DHT22;7019;50.766;4.474;2022-08-06T04:53:24;11.20;99.90
13898;DHT22;7019;50.766;4.474;2022-08-06T04:55:52;11.20;99.90
13898;DHT22;7019;50.766;4.474;2022-08-06T04:58:20;11.30;99.90
13898;DHT22;7019;50.766;4.474;2022-08-06T05:00:47;11.30;99.90
13898;DHT22;7019;50.766;4.474;2022-08-06T05:03:16;11.30;99.90
13898;DHT22;7019;50.766;4.474;2022-08-06T05:05:53;11.30;99.90
13898;DHT22;7019;50.766;4.474;2022-08-06T05:08:22;11.30;99.90
13898;DHT22;7019;50.766;4.474;2022-08-06T05:10:56;11.40;99.90
13898;DHT22;7019;50.766;4.474;2022-08-06T05:13:30;11.40;99.90
13898;DHT22;7019;50.766;4.474;2022-08-06T05:16:03;11.40;99.90
13898;DHT22;7019;50.766;4.474;2022-08-06T05:18:35;11.40;99.90
13898;DHT22;7019;50.766;4.474;2022-08-06T05:21:03;11.40;99.90
13898;DHT22;7019;50.766;4.474;2022-08-06T05:23:35;11.50;99.90
13898;DHT22;7019;50.766;4.474;2022-08-06T05:26:06;11.50;99.90
13898;DHT22;7019;50.766;4.474;2022-08-06T05:28:34;11.60;99.90
13898;DHT22;7019;50.766;4.474;2022-08-06T05:31:01;11.60;99.90
13898;DHT22;7019;50.766;4.474;2022-08-06T05:33:29;11.70;99.90
13898;DHT22;7019;50.766;4.474;2022-08-06T05:35:58;11.80;99.90
13898;DHT22;7019;50.766;4.474;2022-08-06T05:38:26;11.90;99.90
13898;DHT22;7019;50.766;4.474;2022-08-06T05:40:54;12.00;99.90
13898;DHT22;7019;50.766;4.474;2022-08-06T05:43:23;12.00;99.90
13898;DHT22;7019;50.766;4.474;2022-08-06T05:45:54;12.20;99.90
13898;DHT22;7019;50.766;4.474;2022-08-06T05:48:24;12.30;99.90
13898;DHT22;7019;50.766;4.474;2022-08-06T05:50:56;12.30;99.90
13898;DHT22;7019;50.766;4.474;2022-08-06T05:53:28;12.40;99.90
13898;DHT22;7019;50.766;4.474;2022-08-06T05:55:59;12.50;99.90
13898;DHT22;7019;50.766;4.474;2022-08-06T05:58:33;12.60;99.90
13898;DHT22;7019;50.766;4.474;2022-08-06T06:01:04;12.60;99.90
13898;DHT22;7019;50.766;4.474;2022-08-06T06:03:33;12.70;99.90
13898;DHT22;7019;50.766;4.474;2022-08-06T06:06:02;12.80;99.90
13898;DHT22;7019;50.766;4.474;2022-08-06T06:08:30;12.90;99.90
13898;DHT22;7019;50.766;4.474;2022-08-06T06:10:58;13.10;99.90
13898;DHT22;7019;50.766;4.474;2022-08-06T06:13:26;13.30;99.90
13898;DHT22;7019;50.766;4.474;2022-08-06T06:16:11;13.60;99.90
13898;DHT22;7019;50.766;4.474;2022-08-06T06:18:54;14.20;99.90
13898;DHT22;7019;50.766;4.474;2022-08-06T06:21:32;14.70;99.90
13898;DHT22;7019;50.766;4.474;2022-08-06T06:24:09;15.10;99.90
13898;DHT22;7019;50.766;4.474;2022-08-06T06:26:45;15.40;99.90
13898;DHT22;7019;50.766;4.474;2022-08-06T06:29:21;15.70;99.90
13898;DHT22;7019;50.766;4.474;2022-08-06T06:31:59;16.10;99.90
13898;DHT22;7019;50.766;4.474;2022-08-06T06:34:40;16.30;99.90
13898;DHT22;7019;50.766;4.474;2022-08-06T06:37:16;16.50;99.90
13898;DHT22;7019;50.766;4.474;2022-08-06T06:39:52;16.70;99.90
13898;DHT22;7019;50.766;4.474;2022-08-06T06:42:25;17.00;99.90
13898;DHT22;7019;50.766;4.474;2022-08-06T06:45:05;17.30;99.90
13898;DHT22;7019;50.766;4.474;2022-08-06T06:47:43;17.50;99.90
13898;DHT22;7019;50.766;4.474;2022-08-06T06:50:13;17.60;99.90
13898;DHT22;7019;50.766;4.474;2022-08-06T06:52:43;17.60;99.90
13898;DHT22;7019;50.766;4.474;2022-08-06T06:55:13;17.70;99.90
13898;DHT22;7019;50.766;4.474;2022-08-06T06:57:44;17.90;99.90
13898;DHT22;7019;50.766;4.474;2022-08-06T07:00:13;17.90;99.90
13898;DHT22;7019;50.766;4.474;2022-08-06T07:02:46;18.00;99.90
13898;DHT22;7019;50.766;4.474;2022-08-06T07:05:15;18.00;99.90
13898;DHT22;7019;50.766;4.474;2022-08-06T07:07:44;18.10;99.90
13898;DHT22;7019;50.766;4.474;2022-08-06T07:10:12;18.10;99.90
13898;DHT22;7019;50.766;4.474;2022-08-06T07:12:42;18.30;99.90
13898;DHT22;7019;50.766;4.474;2022-08-06T07:15:12;18.40;99.90
13898;DHT22;7019;50.766;4.474;2022-08-06T07:17:43;18.40;99.90
13898;DHT22;7019;50.766;4.474;2022-08-06T07:20:12;18.60;99.90
13898;DHT22;7019;50.766;4.474;2022-08-06T07:22:42;18.70;99.90
13898;DHT22;7019;50.766;4.474;2022-08-06T07:25:12;18.90;99.90
13898;DHT22;7019;50.766;4.474;2022-08-06T07:27:45;19.30;99.90
13898;DHT22;7019;50.766;4.474;2022-08-06T07:30:14;19.70;99.90
13898;DHT22;7019;50.766;4.474;2022-08-06T07:32:44;20.00;99.90
13898;DHT22;7019;50.766;4.474;2022-08-06T07:35:12;20.10;99.90
13898;DHT22;7019;50.766;4.474;2022-08-06T07:37:42;20.20;99.90
13898;DHT22;7019;50.766;4.474;2022-08-06T07:40:18;20.30;99.90
13898;DHT22;7019;50.766;4.474;2022-08-06T07:42:50;20.40;99.90
13898;DHT22;7019;50.766;4.474;2022-08-06T07:45:21;20.50;99.90
13898;DHT22;7019;50.766;4.474;2022-08-06T07:47:52;20.90;99.90
13898;DHT22;7019;50.766;4.474;2022-08-06T07:50:21;21.00;99.90
13898;DHT22;7019;50.766;4.474;2022-08-06T07:52:49;21.10;99.90
13898;DHT22;7019;50.766;4.474;2022-08-06T07:55:17;21.10;99.90
13898;DHT22;7019;50.766;4.474;2022-08-06T07:57:45;21.20;99.90
13898;DHT22;7019;50.766;4.474;2022-08-06T08:00:12;21.20;99.90
13898;DHT22;7019;50.766;4.474;2022-08-06T08:02:41;21.20;99.90
13898;DHT22;7019;50.766;4.474;2022-08-06T08:05:30;21.30;99.90
13898;DHT22;7019;50.766;4.474;2022-08-06T08:08:14;21.50;99.90
13898;DHT22;7019;50.766;4.474;2022-08-06T08:10:42;21.60;99.90
13898;DHT22;7019;50.766;4.474;2022-08-06T08:13:10;21.60;99.90
13898;DHT22;7019;50.766;4.474;2022-08-06T08:15:38;21.90;99.90
13898;DHT22;7019;50.766;4.474;2022-08-06T08:18:06;22.00;99.90
13898;DHT22;7019;50.766;4.474;2022-08-06T08:20:35;22.20;99.90
13898;DHT22;7019;50.766;4.474;2022-08-06T08:23:05;22.40;99.90
13898;DHT22;7019;50.766;4.474;2022-08-06T08:25:35;23.00;99.90
13898;DHT22;7019;50.766;4.474;2022-08-06T08:28:02;23.40;99.20
13898;DHT22;7019;50.766;4.474;2022-08-06T08:30:30;23.60;99.00
13898;DHT22;7019;50.766;4.474;2022-08-06T08:32:57;23.40;98.70
13898;DHT22;7019;50.766;4.474;2022-08-06T08:35:24;23.20;99.00
13898;DHT22;7019;50.766;4.474;2022-08-06T08:37:53;23.00;98.60
13898;DHT22;7019;50.766;4.474;2022-08-06T08:40:20;22.60;98.40
13898;DHT22;7019;50.766;4.474;2022-08-06T08:42:50;22.40;99.20
13898;DHT22;7019;50.766;4.474;2022-08-06T08:45:19;22.30;99.70
13898;DHT22;7019;50.766;4.474;2022-08-06T08:47:50;22.10;99.80
13898;DHT22;7019;50.766;4.474;2022-08-06T08:50:20;22.20;99.70
13898;DHT22;7019;50.766;4.474;2022-08-06T08:52:49;22.30;99.60
13898;DHT22;7019;50.766;4.474;2022-08-06T08:55:21;22.60;99.10
13898;DHT22;7019;50.766;4.474;2022-08-06T08:57:49;22.20;99.20
13898;DHT22;7019;50.766;4.474;2022-08-06T09:00:18;22.10;99.70
13898;DHT22;7019;50.766;4.474;2022-08-06T09:02:45;22.10;99.50
13898;DHT22;7019;50.766;4.474;2022-08-06T09:05:13;21.50;99.90
13898;DHT22;7019;50.766;4.474;2022-08-06T09:07:40;21.90;99.90
13898;DHT22;7019;50.766;4.474;2022-08-06T09:10:09;22.70;99.40
13898;DHT22;7019;50.766;4.474;2022-08-06T09:12:38;23.00;98.90
13898;DHT22;7019;50.766;4.474;2022-08-06T09:15:06;23.30;98.20
13898;DHT22;7019;50.766;4.474;2022-08-06T09:17:34;23.60;97.90
13898;DHT22;7019;50.766;4.474;2022-08-06T09:20:02;23.10;97.80
13898;DHT22;7019;50.766;4.474;2022-08-06T09:22:29;23.40;97.70
13898;DHT22;7019;50.766;4.474;2022-08-06T09:24:56;23.60;96.80
13898;DHT22;7019;50.766;4.474;2022-08-06T09:27:32;23.50;97.30
13898;DHT22;7019;50.766;4.474;2022-08-06T09:30:03;23.50;96.90
13898;DHT22;7019;50.766;4.474;2022-08-06T09:32:39;23.40;96.80
13898;DHT22;7019;50.766;4.474;2022-08-06T09:35:19;23.80;95.90
13898;DHT22;7019;50.766;4.474;2022-08-06T09:37:47;24.20;96.00
13898;DHT22;7019;50.766;4.474;2022-08-06T09:40:16;24.60;95.60
13898;DHT22;7019;50.766;4.474;2022-08-06T09:42:45;24.90;94.60
13898;DHT22;7019;50.766;4.474;2022-08-06T09:45:16;24.50;95.30
13898;DHT22;7019;50.766;4.474;2022-08-06T09:47:44;24.70;95.60
13898;DHT22;7019;50.766;4.474;2022-08-06T09:50:12;25.30;94.40
13898;DHT22;7019;50.766;4.474;2022-08-06T09:52:39;25.60;95.10
13898;DHT22;7019;50.766;4.474;2022-08-06T09:55:07;25.30;93.60
13898;DHT22;7019;50.766;4.474;2022-08-06T09:57:45;24.90;93.70
13898;DHT22;7019;50.766;4.474;2022-08-06T10:00:25;24.50;94.00
13898;DHT22;7019;50.766;4.474;2022-08-06T10:02:56;24.20;94.50
13898;DHT22;7019;50.766;4.474;2022-08-06T10:05:24;24.20;95.10
13898;DHT22;7019;50.766;4.474;2022-08-06T10:08:07;24.80;95.10
13898;DHT22;7019;50.766;4.474;2022-08-06T10:10:45;24.90;93.80
13898;DHT22;7019;50.766;4.474;2022-08-06T10:13:18;24.90;93.40
13898;DHT22;7019;50.766;4.474;2022-08-06T10:15:47;24.60;93.90
13898;DHT22;7019;50.766;4.474;2022-08-06T10:18:36;24.70;94.00
13898;DHT22;7019;50.766;4.474;2022-08-06T10:21:05;24.90;94.40
13898;DHT22;7019;50.766;4.474;2022-08-06T10:23:34;25.00;94.10
13898;DHT22;7019;50.766;4.474;2022-08-06T10:26:03;25.70;94.50
13898;DHT22;7019;50.766;4.474;2022-08-06T10:28:33;25.40;93.90
13898;DHT22;7019;50.766;4.474;2022-08-06T10:31:04;25.90;94.70
13898;DHT22;7019;50.766;4.474;2022-08-06T10:33:33;26.00;93.30
13898;DHT22;7019;50.766;4.474;2022-08-06T10:36:06;25.70;93.70
13898;DHT22;7019;50.766;4.474;2022-08-06T10:38:35;25.60;94.10
13898;DHT22;7019;50.766;4.474;2022-08-06T10:41:07;24.90;93.50
13898;DHT22;7019;50.766;4.474;2022-08-06T10:43:36;24.20;93.30
13898;DHT22;7019;50.766;4.474;2022-08-06T10:46:06;23.90;94.00
13898;DHT22;7019;50.766;4.474;2022-08-06T10:48:36;24.00;93.30
13898;DHT22;7019;50.766;4.474;2022-08-06T10:51:05;24.50;92.90
13898;DHT22;7019;50.766;4.474;2022-08-06T10:53:34;25.00;93.00
13898;DHT22;7019;50.766;4.474;2022-08-06T10:56:02;25.60;92.40
13898;DHT22;7019;50.766;4.474;2022-08-06T10:58:31;25.60;91.50
13898;DHT22;7019;50.766;4.474;2022-08-06T11:00:59;25.50;92.00
13898;DHT22;7019;50.766;4.474;2022-08-06T11:03:38;25.60;92.00
13898;DHT22;7019;50.766;4.474;2022-08-06T11:09:57;25.80;91.60
13898;DHT22;7019;50.766;4.474;2022-08-06T11:12:45;25.70;92.00
13898;DHT22;7019;50.766;4.474;2022-08-06T11:15:14;25.70;92.10
13898;DHT22;7019;50.766;4.474;2022-08-06T11:17:42;25.60;91.50
13898;DHT22;7019;50.766;4.474;2022-08-06T11:20:34;25.00;92.10
13898;DHT22;7019;50.766;4.474;2022-08-06T11:23:03;24.40;92.00
13898;DHT22;7019;50.766;4.474;2022-08-06T11:25:39;24.50;91.90
13898;DHT22;7019;50.766;4.474;2022-08-06T11:28:08;24.70;92.10
13898;DHT22;7019;50.766;4.474;2022-08-06T11:30:41;25.00;91.10
13898;DHT22;7019;50.766;4.474;2022-08-06T11:33:09;25.40;91.50
13898;DHT22;7019;50.766;4.474;2022-08-06T11:35:46;25.50;91.10
13898;DHT22;7019;50.766;4.474;2022-08-06T11:38:16;25.10;91.30
13898;DHT22;7019;50.766;4.474;2022-08-06T11:40:53;24.70;91.30
13898;DHT22;7019;50.766;4.474;2022-08-06T11:46:18;25.70;90.60
13898;DHT22;7019;50.766;4.474;2022-08-06T11:49:11;25.90;90.40
13898;DHT22;7019;50.766;4.474;2022-08-06T11:51:41;26.10;90.30
13898;DHT22;7019;50.766;4.474;2022-08-06T11:54:10;25.70;89.90
13898;DHT22;7019;50.766;4.474;2022-08-06T11:59:38;25.30;91.00
13898;DHT22;7019;50.766;4.474;2022-08-06T12:02:07;25.10;90.80
13898;DHT22;7019;50.766;4.474;2022-08-06T12:04:44;25.30;90.30
13898;DHT22;7019;50.766;4.474;2022-08-06T12:07:18;25.10;90.70
13898;DHT22;7019;50.766;4.474;2022-08-06T12:09:57;24.60;90.60
13898;DHT22;7019;50.766;4.474;2022-08-06T12:12:32;24.40;90.80
13898;DHT22;7019;50.766;4.474;2022-08-06T12:15:02;24.90;91.10
13898;DHT22;7019;50.766;4.474;2022-08-06T12:17:30;25.30;90.40
13898;DHT22;7019;50.766;4.474;2022-08-06T12:19:58;25.00;90.40
13898;DHT22;7019;50.766;4.474;2022-08-06T12:22:28;24.70;90.10
13898;DHT22;7019;50.766;4.474;2022-08-06T12:24:57;24.10;91.30
13898;DHT22;7019;50.766;4.474;2022-08-06T12:27:30;24.00;91.90
13898;DHT22;7019;50.766;4.474;2022-08-06T12:29:58;24.10;90.30
13898;DHT22;7019;50.766;4.474;2022-08-06T12:32:28;24.60;90.90
13898;DHT22;7019;50.766;4.474;2022-08-06T12:34:57;24.80;89.80
13898;DHT22;7019;50.766;4.474;2022-08-06T12:37:35;24.60;90.20
13898;DHT22;7019;50.766;4.474;2022-08-06T12:40:05;23.90;90.40
13898;DHT22;7019;50.766;4.474;2022-08-06T12:42:52;23.60;90.90
13898;DHT22;7019;50.766;4.474;2022-08-06T12:45:20;23.40;90.80
13898;DHT22;7019;50.766;4.474;2022-08-06T12:47:56;24.10;90.90
13898;DHT22;7019;50.766;4.474;2022-08-06T12:50:25;24.90;89.90
13898;DHT22;7019;50.766;4.474;2022-08-06T12:53:04;25.30;89.60
13898;DHT22;7019;50.766;4.474;2022-08-06T12:55:33;25.50;90.30
13898;DHT22;7019;50.766;4.474;2022-08-06T12:58:01;25.10;90.00
13898;DHT22;7019;50.766;4.474;2022-08-06T13:00:29;24.40;90.10
13898;DHT22;7019;50.766;4.474;2022-08-06T13:02:57;23.90;91.60
13898;DHT22;7019;50.766;4.474;2022-08-06T13:05:25;23.60;91.50
13898;DHT22;7019;50.766;4.474;2022-08-06T13:07:54;23.80;91.70
13898;DHT22;7019;50.766;4.474;2022-08-06T13:10:23;24.30;91.20
13898;DHT22;7019;50.766;4.474;2022-08-06T13:12:54;24.70;90.30
13898;DHT22;7019;50.766;4.474;2022-08-06T13:15:23;25.00;88.60
13898;DHT22;7019;50.766;4.474;2022-08-06T13:18:05;25.30;88.10
13898;DHT22;7019;50.766;4.474;2022-08-06T13:20:39;25.60;89.30
13898;DHT22;7019;50.766;4.474;2022-08-06T13:23:07;25.90;87.10
13898;DHT22;7019;50.766;4.474;2022-08-06T13:25:43;26.10;88.10
13898;DHT22;7019;50.766;4.474;2022-08-06T13:28:12;25.80;88.70
13898;DHT22;7019;50.766;4.474;2022-08-06T13:30:40;25.10;88.70
13898;DHT22;7019;50.766;4.474;2022-08-06T13:33:12;25.50;88.70
13898;DHT22;7019;50.766;4.474;2022-08-06T13:35:39;25.30;87.50
13898;DHT22;7019;50.766;4.474;2022-08-06T13:38:06;24.80;85.90
13898;DHT22;7019;50.766;4.474;2022-08-06T13:40:42;24.30;86.90
13898;DHT22;7019;50.766;4.474;2022-08-06T13:43:10;24.20;88.70
13898;DHT22;7019;50.766;4.474;2022-08-06T13:45:38;25.00;89.40
13898;DHT22;7019;50.766;4.474;2022-08-06T13:48:07;25.40;89.20
13898;DHT22;7019;50.766;4.474;2022-08-06T13:50:36;24.90;88.20
13898;DHT22;7019;50.766;4.474;2022-08-06T13:53:03;24.50;89.80
13898;DHT22;7019;50.766;4.474;2022-08-06T13:55:30;24.00;90.10
13898;DHT22;7019;50.766;4.474;2022-08-06T13:57:59;23.50;90.30
13898;DHT22;7019;50.766;4.474;2022-08-06T14:00:26;23.10;90.80
13898;DHT22;7019;50.766;4.474;2022-08-06T14:02:54;22.90;90.90
13898;DHT22;7019;50.766;4.474;2022-08-06T14:05:21;22.90;90.80
13898;DHT22;7019;50.766;4.474;2022-08-06T14:07:49;23.50;91.50
13898;DHT22;7019;50.766;4.474;2022-08-06T14:10:16;24.10;90.00
13898;DHT22;7019;50.766;4.474;2022-08-06T14:12:44;24.70;88.60
13898;DHT22;7019;50.766;4.474;2022-08-06T14:15:34;24.60;89.00
13898;DHT22;7019;50.766;4.474;2022-08-06T14:18:01;24.40;88.60
13898;DHT22;7019;50.766;4.474;2022-08-06T14:20:28;24.10;88.60
13898;DHT22;7019;50.766;4.474;2022-08-06T14:22:56;23.90;89.60
13898;DHT22;7019;50.766;4.474;2022-08-06T14:25:23;24.00;88.90
13898;DHT22;7019;50.766;4.474;2022-08-06T14:27:51;24.50;88.60
13898;DHT22;7019;50.766;4.474;2022-08-06T14:30:19;24.80;87.20
13898;DHT22;7019;50.766;4.474;2022-08-06T14:32:48;25.10;86.50
13898;DHT22;7019;50.766;4.474;2022-08-06T14:35:16;25.60;87.10
13898;DHT22;7019;50.766;4.474;2022-08-06T14:37:44;25.40;85.80
13898;DHT22;7019;50.766;4.474;2022-08-06T14:40:12;25.00;87.10
13898;DHT22;7019;50.766;4.474;2022-08-06T14:42:40;24.40;89.30
13898;DHT22;7019;50.766;4.474;2022-08-06T14:45:25;24.00;87.50
13898;DHT22;7019;50.766;4.474;2022-08-06T14:47:53;23.60;89.00
13898;DHT22;7019;50.766;4.474;2022-08-06T14:50:21;23.70;88.30
13898;DHT22;7019;50.766;4.474;2022-08-06T14:52:48;23.60;87.10
13898;DHT22;7019;50.766;4.474;2022-08-06T14:55:15;23.70;89.30
13898;DHT22;7019;50.766;4.474;2022-08-06T14:57:42;24.30;90.20
13898;DHT22;7019;50.766;4.474;2022-08-06T15:00:10;24.10;87.60
13898;DHT22;7019;50.766;4.474;2022-08-06T15:02:37;24.60;87.30
13898;DHT22;7019;50.766;4.474;2022-08-06T15:05:06;24.80;88.30
13898;DHT22;7019;50.766;4.474;2022-08-06T15:07:33;24.40;88.00
13898;DHT22;7019;50.766;4.474;2022-08-06T15:10:00;24.20;87.80
13898;DHT22;7019;50.766;4.474;2022-08-06T15:12:27;23.90;88.30
13898;DHT22;7019;50.766;4.474;2022-08-06T15:14:54;23.70;89.60
13898;DHT22;7019;50.766;4.474;2022-08-06T15:17:21;23.50;89.00
13898;DHT22;7019;50.766;4.474;2022-08-06T15:19:49;23.30;89.80
13898;DHT22;7019;50.766;4.474;2022-08-06T15:22:17;23.20;90.00
13898;DHT22;7019;50.766;4.474;2022-08-06T15:24:44;23.00;88.80
13898;DHT22;7019;50.766;4.474;2022-08-06T15:27:11;22.80;89.90
13898;DHT22;7019;50.766;4.474;2022-08-06T15:29:45;23.00;90.00
13898;DHT22;7019;50.766;4.474;2022-08-06T15:32:12;23.20;88.60
13898;DHT22;7019;50.766;4.474;2022-08-06T15:34:39;23.30;89.20
13898;DHT22;7019;50.766;4.474;2022-08-06T15:37:07;23.60;88.80
13898;DHT22;7019;50.766;4.474;2022-08-06T15:39:35;23.50;87.80
13898;DHT22;7019;50.766;4.474;2022-08-06T15:42:02;23.30;87.80
13898;DHT22;7019;50.766;4.474;2022-08-06T15:44:29;23.30;88.80
13898;DHT22;7019;50.766;4.474;2022-08-06T15:46:57;23.50;89.40
13898;DHT22;7019;50.766;4.474;2022-08-06T15:49:24;23.80;88.30
13898;DHT22;7019;50.766;4.474;2022-08-06T15:51:51;23.90;88.00
13898;DHT22;7019;50.766;4.474;2022-08-06T15:54:18;23.80;83.80
13898;DHT22;7019;50.766;4.474;2022-08-06T15:56:46;23.70;84.30
13898;DHT22;7019;50.766;4.474;2022-08-06T15:59:13;23.70;84.30
13898;DHT22;7019;50.766;4.474;2022-08-06T16:01:40;23.70;85.30
13898;DHT22;7019;50.766;4.474;2022-08-06T16:04:08;23.90;84.10
13898;DHT22;7019;50.766;4.474;2022-08-06T16:06:35;24.00;84.20
13898;DHT22;7019;50.766;4.474;2022-08-06T16:09:02;24.10;83.00
13898;DHT22;7019;50.766;4.474;2022-08-06T16:11:29;24.20;83.90
13898;DHT22;7019;50.766;4.474;2022-08-06T16:13:57;24.30;84.70